Time;durP1;ratioP1;P1;durP2;ratioP2;P2;SDS_P1;SDS_P2;PMS_P1;PMS_P2;Temp;Humidity;BMP_temperature;BMP_pressure;BME280_temperature;BME280_humidity;BME280_pressure;Samples;Min_cycle;Max_cycle;Signal;HPM_P1;HPM_P2
2022/03/05 00:02:33;;;;;;;34.65;21.92;;;;;;;3.48;53.35;102180.94;5169877;28;20413;-44
2022/03/05 00:05:06;;;;;;;30.67;21.13;;;;;;;3.46;53.19;102201.06;5173863;28;20431;-54
2022/03/05 00:07:39;;;;;;;38.00;23.02;;;;;;;3.36;53.25;102163.22;5178896;28;20898;-44
2022/03/05 00:10:12;;;;;;;35.15;22.13;;;;;;;3.35;53.22;102175.44;5171428;28;20427;-50
2022/03/05 00:12:44;;;;;;;32.25;20.30;;;;;;;3.36;53.50;102177.13;5174378;28;20437;-45
2022/03/05 00:15:17;;;;;;;35.22;22.80;;;;;;;3.31;53.66;102167.81;5172023;28;20899;-49
2022/03/05 00:17:52;;;;;;;38.90;22.80;;;;;;;3.26;53.47;102165.41;5174445;28;20511;-47
2022/03/05 00:20:25;;;;;;;35.40;23.67;;;;;;;3.24;53.67;102168.09;5169073;28;20559;-46
2022/03/05 00:22:58;;;;;;;35.78;22.92;;;;;;;3.19;53.78;102163.97;5167682;28;20409;-51
2022/03/05 00:25:31;;;;;;;33.78;22.17;;;;;;;3.11;54.14;102163.50;5168649;28;20455;-48
2022/03/05 00:28:04;;;;;;;31.27;20.90;;;;;;;3.11;54.08;102172.16;5171765;28;20505;-47
2022/03/05 00:30:37;;;;;;;31.90;21.17;;;;;;;2.99;54.25;102165.72;5170961;28;20412;-48
2022/03/05 00:33:11;;;;;;;34.28;21.85;;;;;;;3.04;54.09;102178.59;5175391;28;20418;-46
2022/03/05 00:35:43;;;;;;;34.60;21.92;;;;;;;3.02;54.41;102177.81;5175255;28;20454;-50
2022/03/05 00:38:16;;;;;;;33.03;23.08;;;;;;;2.88;54.53;102160.16;5169805;28;20411;-50
2022/03/05 00:40:49;;;;;;;32.83;21.47;;;;;;;2.92;54.19;102173.91;5166904;28;20443;-49
2022/03/05 00:43:21;;;;;;;36.85;22.92;;;;;;;2.91;54.27;102175.69;5174824;28;20420;-45
2022/03/05 00:45:54;;;;;;;35.58;23.65;;;;;;;2.93;54.48;102194.72;5174605;28;20478;-47
2022/03/05 00:48:28;;;;;;;34.13;23.13;;;;;;;2.84;54.66;102189.03;5176944;28;20463;-49
2022/03/05 00:51:00;;;;;;;33.17;21.17;;;;;;;2.86;54.56;102193.28;5170285;28;20499;-53
2022/03/05 00:53:33;;;;;;;36.53;22.90;;;;;;;2.91;54.28;102206.13;5174912;28;20863;-47
2022/03/05 00:56:06;;;;;;;35.17;22.23;;;;;;;2.90;54.34;102207.03;5176350;28;20436;-45
2022/03/05 00:58:39;;;;;;;35.38;22.75;;;;;;;2.89;54.56;102205.34;5174975;28;20432;-46
2022/03/05 01:01:11;;;;;;;38.35;23.52;;;;;;;2.89;54.64;102218.41;5171280;28;20957;-45
2022/03/05 01:03:45;;;;;;;40.35;22.90;;;;;;;2.88;54.51;102208.84;5177416;28;20411;-47
2022/03/05 01:06:18;;;;;;;32.42;21.50;;;;;;;2.87;54.78;102210.63;5177187;28;20430;-46
2022/03/05 01:08:50;;;;;;;33.72;21.73;;;;;;;2.85;54.43;102211.59;5174979;28;20519;-51
2022/03/05 01:11:25;;;;;;;33.53;21.50;;;;;;;2.74;54.56;102210.31;5170885;28;20429;-52
2022/03/05 01:13:58;;;;;;;41.22;23.73;;;;;;;2.83;54.65;102219.50;5165893;28;20879;-50
2022/03/05 01:16:31;;;;;;;35.33;20.80;;;;;;;2.83;54.72;102216.06;5173424;28;20500;-47
2022/03/05 01:19:05;;;;;;;34.30;22.52;;;;;;;2.37;54.67;102143.22;5173169;28;20503;-48
2022/03/05 01:21:37;;;;;;;33.75;21.70;;;;;;;2.82;54.59;102248.25;5177462;28;20878;-49
2022/03/05 01:24:10;;;;;;;37.50;23.52;;;;;;;2.82;54.55;102224.78;5177482;28;20425;-46
2022/03/05 01:26:42;;;;;;;41.67;25.65;;;;;;;2.75;54.90;102227.66;5177271;28;20432;-45
2022/03/05 01:29:15;;;;;;;35.35;23.65;;;;;;;2.69;54.74;102233.13;5174373;28;20433;-45
2022/03/05 01:31:47;;;;;;;36.97;23.73;;;;;;;2.63;55.03;102222.94;5171385;28;21642;-46
2022/03/05 01:34:21;;;;;;;35.42;22.35;;;;;;;2.64;54.79;102218.59;5175212;28;20411;-48
2022/03/05 01:36:54;;;;;;;37.83;24.40;;;;;;;2.61;54.75;102219.56;5169199;28;20444;-46
2022/03/05 01:39:27;;;;;;;39.75;23.58;;;;;;;2.60;54.88;102217.91;5159016;28;20405;-54
2022/03/05 01:42:01;;;;;;;40.27;23.57;;;;;;;2.57;54.78;102215.41;5153430;28;20911;-48
2022/03/05 01:44:33;;;;;;;45.20;24.73;;;;;;;2.51;54.92;102211.28;5158708;28;20612;-46
2022/03/05 01:47:07;;;;;;;43.05;23.85;;;;;;;2.51;55.02;102213.06;5157628;28;20513;-48
2022/03/05 01:49:40;;;;;;;36.80;22.50;;;;;;;2.40;55.17;102200.44;5151643;28;20417;-49
2022/03/05 01:52:13;;;;;;;38.67;24.17;;;;;;;2.41;55.19;102212.56;5156254;28;20515;-47
2022/03/05 01:54:46;;;;;;;39.58;25.15;;;;;;;2.37;55.21;102210.16;5151723;28;20431;-49
2022/03/05 01:57:18;;;;;;;35.03;23.27;;;;;;;2.34;55.61;102216.34;5152290;28;20517;-49
2022/03/05 01:59:51;;;;;;;36.67;23.05;;;;;;;2.21;55.64;102200.38;5144393;28;20426;-49
2022/03/05 02:02:23;;;;;;;40.00;24.77;;;;;;;2.26;55.68;102208.84;5146364;28;20441;-50
2022/03/05 02:04:57;;;;;;;37.25;24.13;;;;;;;2.17;55.67;102198.81;5152758;28;20503;-50
2022/03/05 02:07:30;;;;;;;37.60;23.65;;;;;;;2.23;55.51;102208.09;5147017;28;20903;-46
2022/03/05 02:10:02;;;;;;;40.95;24.13;;;;;;;2.20;55.47;102198.69;5144763;28;20527;-50
2022/03/05 02:12:37;;;;;;;39.53;24.88;;;;;;;2.18;55.80;102200.50;5153760;28;20513;-47
2022/03/05 02:15:11;;;;;;;34.47;21.58;;;;;;;2.16;55.79;102198.84;5157814;28;20423;-51
2022/03/05 02:17:43;;;;;;;40.67;24.70;;;;;;;2.15;55.69;102195.41;5144869;28;20948;-50
2022/03/05 02:20:17;;;;;;;36.03;23.05;;;;;;;2.11;55.96;102204.25;5154811;28;20512;-47
2022/03/05 02:22:51;;;;;;;38.00;23.45;;;;;;;2.06;55.91;102191.41;5151286;28;20463;-46
2022/03/05 02:25:23;;;;;;;41.30;24.65;;;;;;;2.03;56.02;102190.69;5157812;28;20433;-47
2022/03/05 02:27:58;;;;;;;37.90;23.88;;;;;;;1.99;56.39;102189.13;5157274;28;20758;-46
2022/03/05 02:30:31;;;;;;;42.47;24.65;;;;;;;1.97;56.45;102180.50;5146716;28;20886;-47
2022/03/05 02:33:03;;;;;;;39.33;25.92;;;;;;;1.88;56.35;102175.66;5154483;28;20434;-50
2022/03/05 02:35:35;;;;;;;41.38;25.05;;;;;;;1.92;56.52;102172.00;5156334;28;20424;-49
2022/03/05 02:38:09;;;;;;;37.58;24.10;;;;;;;1.92;56.10;102179.81;5159068;28;20415;-50
2022/03/05 02:40:43;;;;;;;38.42;23.00;;;;;;;1.88;56.27;102180.88;5172896;28;20434;-53
2022/03/05 02:43:16;;;;;;;38.85;24.15;;;;;;;1.85;56.30;102174.84;5175659;28;20524;-46
2022/03/05 02:45:50;;;;;;;38.10;23.60;;;;;;;1.80;56.55;102174.22;5166876;28;20899;-53
2022/03/05 02:48:23;;;;;;;39.33;24.10;;;;;;;1.82;56.41;102172.38;5174480;28;20406;-47
2022/03/05 02:50:55;;;;;;;41.35;25.40;;;;;;;1.79;56.79;102177.69;5175702;28;20502;-46
2022/03/05 02:53:31;;;;;;;39.38;23.33;;;;;;;1.79;56.83;102182.91;5175650;28;20434;-45
2022/03/05 02:56:04;;;;;;;38.63;24.47;;;;;;;1.80;56.69;102196.81;5174600;28;20772;-49
2022/03/05 02:58:36;;;;;;;40.65;24.83;;;;;;;1.78;56.61;102181.22;5176357;28;20991;-49
2022/03/05 03:01:09;;;;;;;39.92;23.63;;;;;;;1.78;56.73;102177.78;5172851;28;20512;-46
2022/03/05 03:03:42;;;;;;;39.72;25.50;;;;;;;1.75;56.68;102188.31;5179445;28;20448;-56
2022/03/05 03:06:15;;;;;;;41.72;24.17;;;;;;;1.54;57.04;102145.72;5175100;28;20430;-49
2022/03/05 03:08:48;;;;;;;40.38;25.45;;;;;;;1.67;56.86;102166.91;5176238;28;20805;-46
2022/03/05 03:11:21;;;;;;;40.08;25.63;;;;;;;1.70;56.69;102177.22;5175690;28;20409;-46
2022/03/05 03:13:53;;;;;;;42.13;25.92;;;;;;;1.65;57.13;102177.41;5170429;28;20476;-44
2022/03/05 03:16:26;;;;;;;43.10;26.88;;;;;;;1.63;56.92;102171.41;5170655;28;20418;-45
2022/03/05 03:18:58;;;;;;;47.08;27.27;;;;;;;1.61;57.13;102173.22;5168045;28;20428;-47
2022/03/05 03:21:31;;;;;;;47.45;26.55;;;;;;;1.60;56.96;102176.72;5178480;28;20453;-46
2022/03/05 03:24:05;;;;;;;41.17;25.23;;;;;;;1.60;57.33;102176.72;5150815;28;20520;-45
2022/03/05 03:26:38;;;;;;;45.55;27.08;;;;;;;1.58;56.99;102165.50;5174147;28;20423;-49
2022/03/05 03:29:10;;;;;;;44.60;27.37;;;;;;;1.54;57.33;102171.75;5168851;28;20460;-50
2022/03/05 03:31:42;;;;;;;46.10;27.08;;;;;;;1.48;57.35;102164.19;5172853;28;20465;-47
2022/03/05 03:34:15;;;;;;;46.72;27.80;;;;;;;1.52;57.20;102179.66;5171630;28;20471;-48
2022/03/05 03:36:47;;;;;;;48.53;29.38;;;;;;;1.51;57.52;102169.28;5174126;28;20915;-47
2022/03/05 03:39:21;;;;;;;46.03;25.50;;;;;;;1.49;57.41;102168.50;5167689;28;20404;-51
2022/03/05 03:41:53;;;;;;;47.08;29.63;;;;;;;1.43;57.29;102166.13;5174145;28;20421;-48
2022/03/05 03:44:26;;;;;;;47.25;27.02;;;;;;;1.47;57.28;102178.13;5169577;28;20487;-45
2022/03/05 03:46:58;;;;;;;40.88;26.88;;;;;;;1.45;57.39;102166.91;5174854;28;20413;-51
2022/03/05 03:49:31;;;;;;;43.85;26.38;;;;;;;1.40;57.35;102171.47;5171667;28;20787;-46
2022/03/05 03:52:04;;;;;;;43.78;26.75;;;;;;;1.42;57.40;102167.00;5171459;28;20427;-45
2022/03/05 03:54:38;;;;;;;47.00;27.80;;;;;;;1.32;57.62;102161.31;5170407;28;20435;-49
2022/03/05 03:57:10;;;;;;;46.45;28.63;;;;;;;1.33;57.82;102158.66;5173583;28;20427;-45
2022/03/05 03:59:45;;;;;;;45.90;27.40;;;;;;;1.34;57.55;102175.13;5170386;28;20415;-45
2022/03/05 04:02:17;;;;;;;45.70;27.90;;;;;;;1.29;57.97;102162.28;5171686;28;20531;-55
2022/03/05 04:04:50;;;;;;;51.33;29.17;;;;;;;1.26;58.01;102162.38;5176489;28;20412;-44
2022/03/05 04:10:14;;;;;;;42.17;25.95;;;;;;;1.21;58.22;102164.34;5165071;28;20453;-47
2022/03/05 04:12:46;;;;;;;44.92;26.52;;;;;;;1.20;57.84;102162.63;5171081;28;20417;-49
2022/03/05 04:15:19;;;;;;;46.35;27.42;;;;;;;1.17;57.77;102167.94;5167690;28;20503;-51
2022/03/05 04:17:51;;;;;;;48.05;28.13;;;;;;;1.19;58.17;102171.34;5172394;28;20446;-50
2022/03/05 04:20:24;;;;;;;49.70;30.50;;;;;;;1.11;58.13;102157.75;5177466;28;20549;-49
2022/03/05 04:22:56;;;;;;;47.75;28.70;;;;;;;1.13;58.14;102164.59;5175518;28;20410;-50
2022/03/05 04:25:30;;;;;;;51.58;30.67;;;;;;;1.14;58.06;102173.25;5181333;28;20952;-48
2022/03/05 04:28:03;;;;;;;46.83;28.30;;;;;;;1.07;58.23;102161.38;5179390;28;20456;-45
2022/03/05 04:30:36;;;;;;;49.33;29.10;;;;;;;1.13;57.92;102168.97;5175220;28;20478;-46
2022/03/05 04:33:08;;;;;;;49.58;28.05;;;;;;;1.08;58.07;102163.06;5165836;28;20408;-46
2022/03/05 04:35:40;;;;;;;53.55;28.95;;;;;;;1.10;58.13;102171.66;5172481;28;20507;-46
2022/03/05 04:38:13;;;;;;;45.95;29.67;;;;;;;1.02;58.29;102165.88;5175231;28;20423;-47
2022/03/05 04:40:47;;;;;;;52.42;30.02;;;;;;;1.09;58.42;102170.00;5180332;28;20427;-58
2022/03/05 04:43:19;;;;;;;50.47;29.60;;;;;;;1.04;58.09;102174.50;5178063;28;20400;-45
2022/03/05 04:45:52;;;;;;;51.17;30.10;;;;;;;1.03;58.47;102175.41;5172601;28;20411;-46
2022/03/05 04:48:24;;;;;;;57.97;31.58;;;;;;;1.05;58.38;102184.84;5182687;28;20440;-45
2022/03/05 04:50:57;;;;;;;56.83;32.13;;;;;;;1.00;58.37;102176.38;5155456;28;20524;-47
2022/03/05 04:53:29;;;;;;;55.92;31.33;;;;;;;1.04;58.54;102174.50;5168763;28;20511;-47
2022/03/05 04:56:03;;;;;;;54.75;30.50;;;;;;;1.00;58.44;102170.31;5177169;28;20523;-45
2022/03/05 04:58:35;;;;;;;53.25;31.70;;;;;;;1.00;58.40;102167.72;5181408;28;20490;-47
2022/03/05 05:01:08;;;;;;;55.83;30.15;;;;;;;0.95;58.46;102175.66;5175791;28;20423;-45
2022/03/05 05:03:40;;;;;;;56.10;32.22;;;;;;;0.96;58.81;102173.91;5180538;28;20774;-45
2022/03/05 05:06:13;;;;;;;58.20;32.58;;;;;;;0.94;58.86;102167.94;5171198;28;20427;-45
2022/03/05 05:08:45;;;;;;;55.00;31.85;;;;;;;0.94;58.68;102180.94;5173778;28;20505;-46
2022/03/05 05:11:19;;;;;;;56.87;31.53;;;;;;;0.95;58.51;102182.63;5175968;28;20505;-53
2022/03/05 05:13:51;;;;;;;58.87;33.93;;;;;;;0.92;58.61;102179.22;5173905;28;20401;-49
2022/03/05 05:16:24;;;;;;;65.55;35.25;;;;;;;0.95;59.02;102187.84;5172165;28;20514;-53
2022/03/05 05:21:46;;;;;;;56.95;32.00;;;;;;;0.85;59.04;102172.56;5177187;28;20424;-48
2022/03/05 05:24:19;;;;;;;57.88;32.78;;;;;;;0.92;58.86;102178.38;5176397;28;20435;-46
2022/03/05 05:26:53;;;;;;;58.38;32.63;;;;;;;0.91;59.04;102176.69;5174448;28;20487;-49
2022/03/05 05:29:26;;;;;;;55.85;32.30;;;;;;;0.92;59.13;102187.03;5171842;28;20814;-47
2022/03/05 05:31:59;;;;;;;54.88;31.65;;;;;;;0.90;59.32;102194.06;5173257;28;20423;-51
2022/03/05 05:34:31;;;;;;;56.42;30.98;;;;;;;0.91;59.06;102187.09;5178282;28;20433;-49
2022/03/05 05:37:04;;;;;;;61.13;34.95;;;;;;;0.90;59.20;102188.00;5176603;28;20406;-48
2022/03/05 05:39:37;;;;;;;59.20;34.17;;;;;;;0.86;59.29;102187.25;5174973;28;20460;-47
2022/03/05 05:42:11;;;;;;;59.58;32.50;;;;;;;0.87;59.08;102186.38;5176809;28;20450;-45
2022/03/05 05:44:44;;;;;;;46.80;30.23;;;;;;;0.17;59.23;102113.41;5173249;28;20403;-54
2022/03/05 05:47:16;;;;;;;56.10;34.13;;;;;;;0.81;59.45;102196.97;5172896;28;20984;-47
2022/03/05 05:49:49;;;;;;;55.97;32.23;;;;;;;0.80;59.55;102197.88;5176337;28;20509;-49
2022/03/05 05:52:21;;;;;;;60.25;34.78;;;;;;;0.88;59.10;102208.84;5172349;28;20967;-46
2022/03/05 05:54:54;;;;;;;58.03;32.92;;;;;;;0.84;59.62;102202.06;5170842;28;20756;-44
2022/03/05 05:57:28;;;;;;;57.78;33.17;;;;;;;0.84;59.36;102207.28;5151904;28;20459;-44
2022/03/05 06:00:01;;;;;;;60.95;34.35;;;;;;;0.80;59.27;102195.25;5157957;28;20409;-46
2022/03/05 06:02:33;;;;;;;54.60;31.40;;;;;;;0.80;59.62;102197.88;5171868;28;21001;-45
2022/03/05 06:05:07;;;;;;;57.97;33.13;;;;;;;0.80;59.32;102205.66;5161338;28;20511;-45
2022/03/05 06:07:40;;;;;;;56.43;32.53;;;;;;;0.76;59.68;102201.47;5157860;28;20436;-46
2022/03/05 06:10:12;;;;;;;59.42;32.13;;;;;;;0.78;59.72;102201.44;5173495;28;20407;-49
2022/03/05 06:12:48;;;;;;;55.27;31.50;;;;;;;0.78;59.66;102204.88;5174228;28;20602;-51
2022/03/05 06:15:21;;;;;;;62.47;35.47;;;;;;;0.70;59.58;102199.09;5170817;28;20413;-50
2022/03/05 06:17:54;;;;;;;60.58;34.80;;;;;;;0.77;59.34;102203.16;5176810;28;20447;-48
2022/03/05 06:20:27;;;;;;;59.03;32.72;;;;;;;0.78;59.40;102219.66;5174688;28;20520;-45
2022/03/05 06:23:00;;;;;;;55.40;33.00;;;;;;;0.76;59.62;102201.47;5168839;28;20519;-50
2022/03/05 06:25:32;;;;;;;55.35;30.85;;;;;;;0.72;59.41;102202.50;5170754;28;20725;-52
2022/03/05 06:28:08;;;;;;;60.60;32.03;;;;;;;0.70;59.47;102206.91;5172356;28;20467;-45
2022/03/05 06:30:41;;;;;;;61.60;34.17;;;;;;;0.81;59.82;102223.00;5173969;28;20758;-49
2022/03/05 06:33:13;;;;;;;59.55;32.33;;;;;;;0.81;59.92;102223.00;5146423;28;20429;-49
2022/03/05 06:35:46;;;;;;;57.60;34.03;;;;;;;0.82;59.61;102224.69;5174218;28;20426;-49
2022/03/05 06:38:19;;;;;;;56.78;32.70;;;;;;;0.82;59.56;102223.84;5169343;28;20407;-44
2022/03/05 06:40:52;;;;;;;56.95;33.03;;;;;;;0.83;59.93;102226.38;5180133;28;20567;-44
2022/03/05 06:43:25;;;;;;;53.00;32.47;;;;;;;0.75;59.83;102218.00;5168664;28;20420;-46
2022/03/05 06:45:59;;;;;;;61.80;34.40;;;;;;;0.81;60.02;102229.94;5169318;28;20556;-46
2022/03/05 06:48:31;;;;;;;56.92;31.75;;;;;;;0.81;60.12;102224.75;5155633;28;20441;-44
2022/03/05 06:51:03;;;;;;;58.67;32.28;;;;;;;0.77;59.95;102216.16;5177061;28;20966;-45
2022/03/05 06:53:36;;;;;;;56.40;33.20;;;;;;;0.89;59.81;102228.75;5172981;28;20944;-51
2022/03/05 06:56:09;;;;;;;63.17;31.20;;;;;;;0.86;60.03;102221.06;5181305;28;20456;-49
2022/03/05 06:58:42;;;;;;;53.45;31.83;;;;;;;0.94;59.81;102227.78;5171600;28;20824;-45
2022/03/05 07:01:15;;;;;;;54.60;31.33;;;;;;;0.98;59.78;102234.53;5169175;28;20439;-48
2022/03/05 07:03:47;;;;;;;56.03;32.63;;;;;;;1.02;59.86;102231.81;5171629;28;20485;-47
2022/03/05 07:06:20;;;;;;;53.40;32.70;;;;;;;0.98;59.90;102218.94;5167799;28;20417;-44
2022/03/05 07:08:52;;;;;;;54.58;30.98;;;;;;;1.05;60.14;102236.88;5168431;28;20474;-48
2022/03/05 07:11:25;;;;;;;53.53;30.10;;;;;;;1.07;59.89;102234.22;5178033;28;20401;-53
2022/03/05 07:13:59;;;;;;;56.37;33.37;;;;;;;1.01;60.39;102229.25;5176966;28;20442;-45
2022/03/05 07:16:32;;;;;;;60.03;34.03;;;;;;;0.98;59.98;102219.78;5169700;28;20564;-52
2022/03/05 07:19:04;;;;;;;58.28;33.90;;;;;;;1.19;60.28;102249.41;5175882;28;20887;-57
2022/03/05 07:21:37;;;;;;;56.42;32.30;;;;;;;1.26;60.14;102250.88;5173346;28;20491;-49
2022/03/05 07:24:09;;;;;;;55.60;33.42;;;;;;;1.31;60.00;102259.38;5171525;28;20416;-52
2022/03/05 07:26:41;;;;;;;56.95;33.95;;;;;;;1.35;60.16;102250.53;5166551;28;20447;-45
2022/03/05 07:29:15;;;;;;;54.72;31.98;;;;;;;1.44;60.04;102258.94;5171239;28;20502;-46
2022/03/05 07:31:48;;;;;;;54.55;32.47;;;;;;;1.56;59.83;102258.47;5170731;28;20883;-44
2022/03/05 07:34:20;;;;;;;51.95;30.88;;;;;;;2.50;59.38;102263.50;5176253;28;20419;-46
2022/03/05 07:36:53;;;;;;;48.08;31.73;;;;;;;3.94;58.41;102257.19;5174783;28;20425;-48
2022/03/05 07:39:25;;;;;;;45.13;29.30;;;;;;;5.37;57.07;102256.13;5175053;28;20500;-50
2022/03/05 07:41:58;;;;;;;44.33;25.75;;;;;;;6.47;56.13;102251.84;5172767;28;20455;-46
2022/03/05 07:44:32;;;;;;;38.47;24.52;;;;;;;7.62;55.37;102244.94;5164909;28;20413;-50
2022/03/05 07:47:06;;;;;;;35.72;22.92;;;;;;;8.75;54.63;102245.47;5160508;28;20783;-46
2022/03/05 07:49:38;;;;;;;37.63;23.15;;;;;;;9.67;54.00;102240.91;5169285;28;20917;-50
2022/03/05 07:52:10;;;;;;;37.80;23.55;;;;;;;10.45;53.49;102253.69;5170042;28;20426;-50
2022/03/05 07:54:43;;;;;;;37.17;23.83;;;;;;;11.15;53.22;102254.56;5174706;28;20467;-52
2022/03/05 07:57:15;;;;;;;34.70;22.38;;;;;;;11.95;52.14;102255.31;5176862;28;20423;-47
2022/03/05 07:59:49;;;;;;;32.17;22.70;;;;;;;12.55;51.43;102249.53;5169642;28;20511;-49
2022/03/05 08:02:22;;;;;;;35.47;23.10;;;;;;;13.47;50.37;102249.66;5170444;28;20409;-61
2022/03/05 08:04:54;;;;;;;38.00;23.25;;;;;;;14.09;49.47;102237.94;5170145;28;20817;-54
2022/03/05 08:07:27;;;;;;;33.73;21.60;;;;;;;14.58;48.56;102251.22;5174729;28;20433;-53
2022/03/05 08:10:15;;;;;;;34.05;21.38;;;;;;;14.79;48.14;102246.59;5173934;28;20504;-47
2022/03/05 08:12:47;;;;;;;31.45;20.27;;;;;;;14.84;47.29;102235.53;5171010;28;20456;-48
2022/03/05 08:15:21;;;;;;;35.17;21.63;;;;;;;15.05;46.93;102267.25;5167649;28;20499;-45
2022/03/05 08:17:56;;;;;;;32.45;21.75;;;;;;;15.05;46.42;102267.25;5169298;28;20492;-47
2022/03/05 08:20:31;;;;;;;35.53;22.73;;;;;;;15.11;45.72;102235.59;5167587;28;20447;-52
2022/03/05 08:23:04;;;;;;;33.77;21.83;;;;;;;15.53;45.19;102283.03;5164146;28;20582;-45
2022/03/05 08:25:36;;;;;;;35.92;22.73;;;;;;;15.76;44.51;102266.69;5166263;28;20429;-53
2022/03/05 08:28:09;;;;;;;34.85;20.95;;;;;;;15.27;44.61;102258.06;5167732;28;20739;-48
2022/03/05 08:30:43;;;;;;;32.88;22.13;;;;;;;15.24;44.27;102275.19;5171168;28;20485;-48
2022/03/05 08:33:17;;;;;;;32.67;20.83;;;;;;;15.06;43.88;102276.91;5167825;28;20543;-49
2022/03/05 08:35:50;;;;;;;36.67;21.02;;;;;;;14.54;43.83;102285.25;5164958;28;20417;-46
2022/03/05 08:38:22;;;;;;;33.33;22.27;;;;;;;14.38;43.80;102284.94;5164756;28;21022;-48
2022/03/05 08:40:54;;;;;;;35.45;22.80;;;;;;;14.26;43.40;102271.78;5178093;28;20811;-54
2022/03/05 08:43:27;;;;;;;36.47;22.42;;;;;;;14.10;43.08;102279.44;5141069;28;20958;-52
2022/03/05 08:46:02;;;;;;;35.28;22.63;;;;;;;14.05;43.09;102277.19;5168025;28;20492;-49
2022/03/05 08:49:08;;;;;;;34.50;22.27;;;;;;;14.11;42.78;102269.66;5176564;28;20770;-52
2022/03/05 08:51:41;;;;;;;34.05;22.15;;;;;;;14.16;42.33;102273.59;5173848;28;20891;-49
2022/03/05 08:54:13;;;;;;;34.42;22.35;;;;;;;14.36;41.98;102276.25;5167708;28;20506;-47
2022/03/05 08:56:46;;;;;;;33.47;21.38;;;;;;;15.02;41.09;102276.38;5179568;28;20509;-48
2022/03/05 08:59:18;;;;;;;34.38;22.20;;;;;;;15.04;40.78;102258.41;5175991;28;20415;-46
2022/03/05 09:01:52;;;;;;;34.70;22.08;;;;;;;14.86;40.67;102276.09;5178533;28;20418;-45
2022/03/05 09:04:25;;;;;;;38.03;23.80;;;;;;;14.41;40.80;102247.44;5177617;28;20777;-52
2022/03/05 09:06:58;;;;;;;37.38;22.95;;;;;;;14.52;40.62;102280.09;5171369;28;20590;-54
2022/03/05 09:09:30;;;;;;;39.08;23.90;;;;;;;14.36;40.77;102274.44;5170014;28;20412;-47
2022/03/05 09:12:03;;;;;;;33.70;21.73;;;;;;;14.35;40.52;102280.72;5180160;28;20424;-47
2022/03/05 09:14:36;;;;;;;35.40;21.83;;;;;;;14.09;40.62;102275.13;5178590;28;20482;-56
2022/03/05 09:17:09;;;;;;;38.13;22.52;;;;;;;13.96;40.81;102277.19;5176500;28;20439;-47
2022/03/05 09:19:42;;;;;;;36.63;23.17;;;;;;;14.30;40.44;102283.78;5178731;28;20419;-49
2022/03/05 09:22:17;;;;;;;35.25;21.98;;;;;;;14.57;40.26;102278.81;5174849;28;20575;-48
2022/03/05 09:24:49;;;;;;;33.95;21.42;;;;;;;14.30;40.81;102281.13;5145556;28;20418;-53
2022/03/05 09:27:22;;;;;;;34.70;22.88;;;;;;;14.11;41.01;102259.88;5182661;28;20423;-51
2022/03/05 09:29:54;;;;;;;34.38;22.20;;;;;;;14.08;41.55;102284.06;5179865;28;20469;-53
2022/03/05 09:32:28;;;;;;;32.92;21.83;;;;;;;13.78;41.72;102280.50;5187208;28;20423;-50
2022/03/05 09:35:01;;;;;;;34.28;21.58;;;;;;;13.28;42.52;102279.59;5169337;28;20425;-46
2022/03/05 09:37:34;;;;;;;39.40;22.70;;;;;;;12.80;43.27;102278.31;5164810;28;20436;-48
2022/03/05 09:40:09;;;;;;;35.75;22.60;;;;;;;12.62;43.72;102279.84;5168047;28;20781;-51
2022/03/05 09:42:44;;;;;;;34.88;21.42;;;;;;;12.14;44.17;102282.91;5164864;28;20444;-48
2022/03/05 09:45:17;;;;;;;34.17;21.45;;;;;;;11.55;44.91;102284.03;5169525;28;20431;-56
2022/03/05 09:47:51;;;;;;;35.95;22.33;;;;;;;11.17;45.27;102279.94;5168777;28;20544;-52
2022/03/05 09:50:28;;;;;;;35.60;22.48;;;;;;;10.75;45.71;102292.00;5172353;28;20841;-48
2022/03/05 09:53:01;;;;;;;36.75;24.63;;;;;;;10.15;46.10;102286.66;5164846;28;20487;-48
2022/03/05 09:55:33;;;;;;;37.80;24.67;;;;;;;9.49;46.92;102287.88;5167353;28;20430;-49
2022/03/05 09:58:06;;;;;;;40.28;24.70;;;;;;;9.01;47.00;102282.38;5165154;28;20452;-52
2022/03/05 10:00:40;;;;;;;43.25;27.45;;;;;;;8.78;46.94;102286.59;5167062;28;20423;-52
2022/03/05 10:03:15;;;;;;;40.10;24.92;;;;;;;8.57;46.79;102288.00;5172517;28;20981;-48
2022/03/05 10:05:48;;;;;;;46.17;26.52;;;;;;;8.29;46.75;102295.03;5171053;28;20996;-46
2022/03/05 10:08:20;;;;;;;49.17;28.58;;;;;;;8.12;46.97;102298.75;5170111;28;21011;-48
2022/03/05 10:10:59;;;;;;;45.95;28.05;;;;;;;8.03;46.86;102300.19;5164327;28;20417;-51
2022/03/05 10:13:35;;;;;;;44.70;27.48;;;;;;;7.98;46.98;102301.41;5163177;28;20913;-51
2022/03/05 10:16:24;;;;;;;44.45;27.77;;;;;;;7.83;47.07;102301.47;5163596;28;20427;-48
2022/03/05 10:18:59;;;;;;;47.40;29.35;;;;;;;7.66;47.01;102300.81;5174686;28;20426;-51
2022/03/05 10:21:33;;;;;;;45.20;27.98;;;;;;;7.38;47.27;102307.75;5169117;28;20422;-52
2022/03/05 10:24:08;;;;;;;43.93;28.70;;;;;;;7.36;47.27;102299.09;5160525;28;20937;-51
2022/03/05 10:26:52;;;;;;;49.72;29.17;;;;;;;7.23;47.57;102304.25;5175640;28;20434;-49
2022/03/05 10:29:26;;;;;;;42.00;27.07;;;;;;;7.07;47.43;102300.88;5171443;28;20425;-48
2022/03/05 10:32:02;;;;;;;46.22;28.58;;;;;;;6.97;47.52;102300.56;5160957;28;20423;-55
2022/03/05 10:34:56;;;;;;;43.58;27.60;;;;;;;6.97;47.68;102297.06;5159715;28;20424;-49
2022/03/05 10:37:28;;;;;;;44.90;27.73;;;;;;;6.80;47.81;102275.28;5171992;28;20553;-52
2022/03/05 10:40:03;;;;;;;47.75;29.83;;;;;;;6.90;47.77;102297.44;5165890;28;20407;-50
2022/03/05 10:42:39;;;;;;;47.00;29.13;;;;;;;6.75;47.95;102293.09;5165450;28;21050;-57
2022/03/05 10:45:17;;;;;;;48.75;29.77;;;;;;;6.74;48.14;102290.56;5163480;28;20806;-48
2022/03/05 10:47:51;;;;;;;45.53;29.30;;;;;;;6.75;47.96;102287.84;5170941;28;20912;-48
2022/03/05 10:50:28;;;;;;;45.80;28.30;;;;;;;6.71;47.97;102265.31;5169876;28;21292;-50
2022/03/05 10:53:01;;;;;;;46.80;28.67;;;;;;;6.90;48.04;102286.09;5162071;28;20893;-49
2022/03/05 10:55:38;;;;;;;48.45;28.98;;;;;;;6.85;48.01;102277.66;5168095;28;20481;-49
2022/03/05 10:58:16;;;;;;;47.97;29.13;;;;;;;6.91;48.20;102280.75;5167998;28;20414;-49
2022/03/05 11:00:50;;;;;;;46.65;28.38;;;;;;;6.93;48.15;102296.41;5156486;28;21878;-48
2022/03/05 11:03:23;;;;;;;45.67;27.00;;;;;;;6.82;48.22;102257.66;5164836;28;20923;-48
2022/03/05 11:05:57;;;;;;;44.55;28.63;;;;;;;7.06;47.95;102299.16;5163941;28;20435;-46
2022/03/05 11:08:29;;;;;;;46.53;28.23;;;;;;;7.08;48.23;102289.41;5161081;28;20419;-47
2022/03/05 11:11:02;;;;;;;45.80;27.75;;;;;;;7.08;48.44;102294.66;5165846;28;20419;-51
2022/03/05 11:13:35;;;;;;;54.63;31.52;;;;;;;7.03;48.30;102280.94;5163345;28;20566;-48
2022/03/05 11:16:07;;;;;;;48.55;29.23;;;;;;;7.19;48.16;102292.25;5169540;28;20616;-48
2022/03/05 11:18:40;;;;;;;53.53;28.73;;;;;;;7.29;48.26;102297.78;5162454;28;20508;-48
2022/03/05 11:21:17;;;;;;;49.70;29.47;;;;;;;7.27;48.11;102300.50;5164571;28;20475;-52
2022/03/05 11:23:51;;;;;;;48.28;29.48;;;;;;;7.32;48.20;102297.63;5168287;28;20413;-48
2022/03/05 11:26:24;;;;;;;51.75;31.88;;;;;;;7.34;48.16;102296.59;5167824;28;20409;-48
2022/03/05 11:28:56;;;;;;;51.92;29.85;;;;;;;7.34;48.20;102296.59;5163514;28;20852;-48
2022/03/05 11:31:33;;;;;;;46.63;29.75;;;;;;;7.03;47.93;102254.69;5162586;28;20421;-53
2022/03/05 11:34:13;;;;;;;47.70;29.20;;;;;;;7.32;48.48;102295.81;5152819;28;20456;-51
2022/03/05 11:36:51;;;;;;;46.75;29.02;;;;;;;7.36;48.47;102288.59;5159917;28;20859;-55
2022/03/05 11:39:31;;;;;;;51.63;28.80;;;;;;;7.22;48.30;102291.22;5147678;28;20551;-51
2022/03/05 11:42:08;;;;;;;47.88;28.83;;;;;;;7.14;48.73;102283.78;5158547;28;20433;-51
2022/03/05 11:44:44;;;;;;;49.80;30.80;;;;;;;6.98;48.34;102254.13;5160437;28;20431;-48
2022/03/05 11:47:30;;;;;;;49.92;29.73;;;;;;;7.32;48.28;102293.19;5162131;28;20967;-48
2022/03/05 11:50:16;;;;;;;48.17;28.60;;;;;;;6.62;48.24;102148.56;5167441;28;20593;-46
2022/03/05 11:53:17;;;;;;;47.80;27.20;;;;;;;7.40;48.20;102276.94;5170600;28;20427;-61